SMI weather

Samos Airport
Samos Island, Samos, Greece

Public forecast

Using degrees Celsius for public forecast. Weather courtesy of forecast.io.

METAR (pilot weather report)

Retrieved 2019/05/23 12:20 UTC (16 minutes ago):

LGSM 231220Z 13005KT CAVOK 28/16 Q1010

TAF (pilot weather forecast)

Forecast is more than 12 hours old.

Retrieved 2012/09/21 03:06 UTC (7 years ago):

TAF LGSM 210200Z 2103/2115 VRB05KT 9999 FEW020 BECMG 2104/2106 30012KT